createdAt,value
2022-08-04T00:01:55.066Z,5.53
2022-08-04T00:04:34.299Z,6.10
2022-08-04T00:07:09.672Z,5.77
2022-08-04T00:09:45.369Z,5.13
2022-08-04T00:12:18.394Z,5.57
2022-08-04T00:14:53.518Z,5.80
2022-08-04T00:17:25.852Z,6.03
2022-08-04T00:20:00.738Z,5.17
2022-08-04T00:22:32.268Z,6.60
2022-08-04T00:25:04.164Z,5.73
2022-08-04T00:28:06.505Z,7.23
2022-08-04T00:30:35.331Z,5.90
2022-08-04T00:33:05.007Z,6.47
2022-08-04T00:35:35.405Z,6.60
2022-08-04T00:38:04.924Z,6.30
2022-08-04T00:40:43.855Z,7.00
2022-08-04T00:43:20.949Z,6.67
2022-08-04T00:46:19.061Z,7.00
2022-08-04T00:49:02.453Z,6.63
2022-08-04T00:51:45.455Z,6.67
2022-08-04T00:54:25.269Z,6.73
2022-08-04T00:57:28.626Z,7.43
2022-08-04T01:00:09.696Z,7.30
2022-08-04T01:02:47.221Z,7.13
2022-08-04T01:05:23.102Z,7.47
2022-08-04T01:08:02.129Z,7.20
2022-08-04T01:10:48.596Z,6.73
2022-08-04T01:13:36.119Z,7.07
2022-08-04T01:16:07.456Z,6.80
2022-08-04T01:18:47.190Z,7.03
2022-08-04T01:21:54.778Z,6.67
2022-08-04T01:24:38.995Z,7.03
2022-08-04T01:28:00.487Z,7.27
2022-08-04T01:30:33.954Z,7.00
2022-08-04T01:33:05.106Z,6.70
2022-08-04T01:35:47.417Z,7.30
2022-08-04T01:38:21.978Z,6.87
2022-08-04T01:40:54.222Z,6.33
2022-08-04T01:43:22.762Z,7.63
2022-08-04T01:45:58.043Z,7.40
2022-08-04T01:48:27.740Z,7.60
2022-08-04T01:50:59.817Z,7.77
2022-08-04T01:53:32.567Z,8.33
2022-08-04T01:56:03.223Z,7.80
2022-08-04T02:04:20.426Z,9.03
2022-08-04T02:07:00.840Z,7.97
2022-08-04T02:09:54.707Z,8.00
2022-08-04T02:12:31.819Z,7.43
2022-08-04T02:15:07.880Z,8.43
2022-08-04T02:17:46.779Z,7.73
2022-08-04T02:20:23.020Z,7.80
2022-08-04T02:22:59.242Z,7.60
2022-08-04T02:25:30.485Z,8.40
2022-08-04T02:28:17.303Z,9.00
2022-08-04T02:30:56.330Z,8.20
2022-08-04T02:33:32.055Z,8.63
2022-08-04T02:36:05.822Z,8.20
2022-08-04T02:38:44.175Z,8.03
2022-08-04T02:41:13.761Z,7.67
2022-08-04T02:43:51.435Z,7.67
2022-08-04T02:46:23.490Z,9.23
2022-08-04T02:48:55.172Z,8.30
2022-08-04T03:15:00.543Z,8.93
2022-08-04T03:17:59.456Z,9.10
2022-08-04T03:21:24.552Z,9.00
2022-08-04T03:24:20.130Z,9.13
2022-08-04T03:30:46.272Z,9.93
2022-08-04T03:33:45.697Z,9.70
2022-08-04T03:36:50.222Z,8.87
2022-08-04T03:39:56.022Z,9.60
2022-08-04T03:43:06.150Z,8.80
2022-08-04T03:46:22.233Z,8.90
2022-08-04T03:49:28.331Z,8.57
2022-08-04T03:52:25.687Z,8.80
2022-08-04T03:55:25.352Z,8.93
2022-08-04T03:58:31.207Z,8.90
2022-08-04T04:01:11.018Z,8.63
2022-08-04T04:04:04.586Z,7.73
2022-08-04T04:06:53.946Z,8.43
2022-08-04T04:09:56.887Z,8.53
2022-08-04T04:12:54.406Z,8.87
2022-08-04T04:15:50.263Z,8.90
2022-08-04T04:18:29.640Z,7.80
2022-08-04T04:21:32.013Z,9.13
2022-08-04T04:24:23.122Z,8.37
2022-08-04T04:27:34.943Z,9.27
2022-08-04T04:30:08.524Z,8.50
2022-08-04T04:33:12.397Z,8.97
2022-08-04T04:35:49.628Z,8.60
2022-08-04T04:38:42.451Z,8.10
2022-08-04T04:41:46.778Z,8.97
2022-08-04T04:44:45.423Z,8.57
2022-08-04T04:47:43.325Z,9.03
2022-08-04T04:50:19.002Z,9.07
2022-08-04T04:52:52.134Z,8.83
2022-08-04T04:55:24.146Z,8.50
2022-08-04T04:57:55.989Z,8.23
2022-08-04T05:00:40.178Z,6.90
2022-08-04T05:03:31.478Z,7.77
2022-08-04T05:06:12.493Z,7.80
2022-08-04T05:09:05.531Z,7.67
2022-08-04T05:11:59.749Z,7.57
2022-08-04T05:14:41.324Z,7.63
2022-08-04T05:17:20.242Z,8.00
2022-08-04T05:19:58.927Z,7.77
2022-08-04T05:22:37.204Z,7.90
2022-08-04T05:25:10.212Z,6.73
2022-08-04T05:27:58.214Z,7.67
2022-08-04T05:30:29.887Z,6.77
2022-08-04T05:33:05.271Z,7.13
2022-08-04T05:36:17.689Z,7.10
2022-08-04T05:38:31.155Z,7.10
2022-08-04T05:41:01.148Z,7.10
2022-08-04T05:43:30.571Z,7.50
2022-08-04T05:46:00.090Z,8.03
2022-08-04T05:48:30.938Z,7.30
2022-08-04T05:51:01.394Z,6.93
2022-08-04T05:53:31.861Z,7.37
2022-08-04T05:56:05.595Z,6.83
2022-08-04T06:06:35.597Z,7.47
2022-08-04T06:09:04.134Z,7.10
2022-08-04T06:11:59.197Z,7.43
2022-08-04T06:14:28.518Z,7.30
2022-08-04T06:16:57.692Z,7.13
2022-08-04T06:20:00.850Z,6.90
2022-08-04T06:22:33.392Z,9.03
2022-08-04T06:25:06.329Z,7.60
2022-08-04T06:28:04.466Z,7.23
2022-08-04T06:30:34.731Z,7.07
2022-08-04T06:35:58.271Z,6.90
2022-08-04T06:38:32.567Z,7.13
2022-08-04T06:41:04.079Z,7.23
2022-08-04T06:43:33.388Z,7.67
2022-08-04T06:46:17.688Z,8.30
2022-08-04T06:48:47.419Z,6.70
2022-08-04T06:51:30.471Z,6.67
2022-08-04T06:54:07.697Z,6.23
2022-08-04T06:56:39.612Z,7.70
2022-08-04T06:59:29.432Z,7.20
2022-08-04T07:02:04.684Z,6.60
2022-08-04T07:05:04.607Z,6.80
2022-08-04T07:07:58.829Z,6.77
2022-08-04T07:11:39.043Z,7.23
2022-08-04T07:14:39.797Z,6.50
2022-08-04T07:17:13.708Z,6.57
2022-08-04T07:19:44.561Z,6.80
2022-08-04T07:22:25.282Z,6.30
2022-08-04T07:25:01.805Z,6.20
2022-08-04T07:27:48.461Z,6.70
2022-08-04T07:30:23.069Z,6.20
2022-08-04T07:33:03.553Z,5.57
2022-08-04T07:36:11.783Z,4.65
2022-08-04T07:38:48.395Z,5.20
2022-08-04T07:41:39.319Z,5.20
2022-08-04T07:44:10.656Z,5.20
2022-08-04T07:46:43.292Z,5.85
2022-08-04T07:49:12.412Z,4.57
2022-08-04T07:52:04.982Z,4.40
2022-08-04T07:54:37.000Z,4.50
2022-08-04T07:57:06.380Z,4.85
2022-08-04T07:59:37.258Z,4.30
2022-08-04T08:02:06.943Z,4.20
2022-08-04T08:04:38.130Z,4.00
2022-08-04T08:07:09.335Z,4.30
2022-08-04T08:09:51.653Z,4.85
2022-08-04T08:12:38.442Z,4.43
2022-08-04T08:15:42.457Z,4.50
2022-08-04T08:18:11.101Z,4.40
2022-08-04T08:20:42.045Z,3.95
2022-08-04T08:23:10.677Z,4.57
2022-08-04T08:25:45.316Z,4.40
2022-08-04T08:28:19.452Z,4.40
2022-08-04T08:30:59.456Z,4.18
2022-08-04T08:33:30.880Z,4.10
2022-08-04T08:36:07.978Z,4.10
2022-08-04T08:38:49.030Z,4.07
2022-08-04T08:42:13.833Z,4.45
2022-08-04T08:45:19.103Z,4.05
2022-08-04T08:48:26.370Z,4.60
2022-08-04T08:51:10.037Z,4.93
2022-08-04T08:53:53.870Z,4.75
2022-08-04T08:56:33.376Z,5.13
2022-08-04T08:59:40.854Z,5.15
2022-08-04T09:02:42.191Z,5.40
2022-08-04T09:05:53.357Z,5.55
2022-08-04T09:08:46.071Z,5.05
2022-08-04T09:11:16.841Z,6.38
2022-08-04T09:13:54.760Z,5.43
2022-08-04T09:16:32.932Z,5.43
2022-08-04T09:19:07.613Z,5.82
2022-08-04T09:21:43.549Z,7.13
2022-08-04T09:24:36.119Z,5.50
2022-08-04T09:27:28.365Z,6.25
2022-08-04T09:30:20.776Z,5.60
2022-08-04T09:33:05.571Z,5.50
2022-08-04T09:35:55.013Z,5.20
2022-08-04T09:38:36.196Z,5.85
2022-08-04T09:41:48.654Z,6.03
2022-08-04T09:44:50.584Z,5.90
2022-08-04T09:47:39.782Z,5.97
2022-08-04T09:50:35.315Z,5.85
2022-08-04T09:53:29.925Z,5.20
2022-08-04T09:56:09.914Z,5.30
2022-08-04T09:58:58.049Z,6.03
2022-08-04T10:01:37.996Z,6.25
2022-08-04T10:04:10.927Z,6.10
2022-08-04T10:07:06.062Z,6.80
2022-08-04T10:09:59.973Z,5.25
2022-08-04T10:12:47.178Z,5.53
2022-08-04T10:15:34.201Z,5.70
2022-08-04T10:22:30.978Z,5.82
2022-08-04T10:26:04.321Z,5.65
2022-08-04T10:28:11.983Z,5.85
2022-08-04T10:30:54.335Z,6.18
2022-08-04T10:33:27.900Z,5.57
2022-08-04T10:36:03.171Z,5.72
2022-08-04T10:38:40.946Z,5.40
2022-08-04T10:41:18.327Z,5.35
2022-08-04T10:44:08.491Z,4.72
2022-08-04T10:46:44.955Z,5.28
2022-08-04T10:49:50.389Z,4.60
2022-08-04T10:52:26.406Z,4.85
2022-08-04T10:55:04.071Z,5.53
2022-08-04T10:57:40.790Z,5.20
2022-08-04T11:00:16.711Z,4.40
2022-08-04T11:02:53.656Z,4.45
2022-08-04T11:05:32.149Z,4.90
2022-08-04T11:08:08.743Z,4.10
2022-08-04T11:10:47.305Z,4.75
2022-08-04T11:13:22.158Z,4.30
2022-08-04T11:16:05.108Z,4.10
2022-08-04T11:18:49.129Z,4.35
2022-08-04T11:21:28.543Z,4.30
2022-08-04T11:28:11.357Z,5.53
2022-08-04T11:30:46.678Z,4.72
2022-08-04T11:33:28.852Z,4.20
2022-08-04T11:36:03.424Z,4.00
2022-08-04T11:38:52.537Z,3.58
2022-08-04T11:41:30.103Z,3.85
2022-08-04T11:44:06.808Z,3.83
2022-08-04T11:46:55.681Z,4.60
2022-08-04T11:49:56.544Z,8.48
2022-08-04T11:52:27.520Z,4.53
2022-08-04T11:54:57.679Z,3.78
2022-08-04T11:57:35.951Z,4.07
2022-08-04T12:00:10.103Z,3.63
2022-08-04T12:03:12.380Z,4.07
2022-08-04T12:05:53.094Z,3.95
2022-08-04T12:08:48.356Z,3.67
2022-08-04T12:11:26.072Z,3.78
2022-08-04T12:14:06.600Z,3.40
2022-08-04T12:16:43.693Z,3.88
2022-08-04T12:19:19.179Z,3.63
2022-08-04T12:21:56.914Z,3.47
2022-08-04T12:24:30.079Z,3.35
2022-08-04T12:27:05.127Z,2.85
2022-08-04T12:29:37.266Z,2.95
2022-08-04T12:32:15.053Z,12.13
2022-08-04T12:34:51.908Z,4.90
2022-08-04T12:37:34.076Z,3.45
2022-08-04T12:40:27.719Z,2.78
2022-08-04T12:43:00.358Z,3.03
2022-08-04T12:45:30.245Z,3.17
2022-08-04T12:48:06.576Z,3.08
2022-08-04T12:50:38.170Z,2.70
2022-08-04T12:53:31.953Z,2.97
2022-08-04T12:56:04.822Z,2.45
2022-08-04T12:58:44.174Z,2.60
2022-08-04T13:02:08.423Z,3.30
2022-08-04T13:04:29.049Z,3.03
2022-08-04T13:07:08.154Z,3.00
2022-08-04T13:09:47.572Z,2.88
2022-08-04T13:12:18.585Z,3.13
2022-08-04T13:14:50.678Z,2.75
2022-08-04T13:17:28.154Z,3.25
2022-08-04T13:19:59.802Z,6.35
2022-08-04T13:22:29.977Z,4.03
2022-08-04T13:26:41.759Z,3.42
2022-08-04T13:27:58.174Z,3.30
2022-08-04T13:30:29.027Z,3.33
2022-08-04T13:33:01.705Z,3.40
2022-08-04T13:35:54.481Z,3.35
2022-08-04T13:38:26.781Z,3.45
2022-08-04T13:41:00.937Z,3.83
2022-08-04T13:44:16.833Z,3.67
2022-08-04T13:46:40.282Z,3.47
2022-08-04T13:49:42.630Z,3.95
2022-08-04T13:52:11.139Z,4.20
2022-08-04T13:54:44.557Z,3.78
2022-08-04T13:57:31.745Z,3.22
2022-08-04T14:00:04.802Z,3.22
2022-08-04T14:02:59.770Z,3.58
2022-08-04T14:05:58.962Z,3.20
2022-08-04T14:08:33.224Z,3.60
2022-08-04T14:12:08.808Z,3.40
2022-08-04T14:14:22.091Z,3.63
2022-08-04T14:17:04.882Z,3.85
2022-08-04T14:20:02.194Z,3.42
2022-08-04T14:23:10.460Z,26.25
2022-08-04T14:25:50.327Z,3.53
2022-08-04T14:29:24.951Z,3.53
2022-08-04T14:31:37.108Z,3.30
2022-08-04T14:34:39.177Z,3.47
2022-08-04T14:37:18.423Z,3.53
2022-08-04T14:40:08.197Z,3.30
2022-08-04T14:42:56.648Z,3.53
2022-08-04T14:45:33.368Z,3.63
2022-08-04T14:48:11.727Z,3.58
2022-08-04T14:50:41.950Z,4.15
2022-08-04T14:53:12.778Z,3.50
2022-08-04T14:55:49.725Z,3.70
2022-08-04T14:58:36.699Z,3.80
2022-08-04T15:01:10.767Z,3.63
2022-08-04T15:03:52.922Z,4.05
2022-08-04T15:06:26.088Z,3.58
2022-08-04T15:08:59.729Z,4.03
2022-08-04T15:11:29.658Z,3.30
2022-08-04T15:13:59.628Z,3.75
2022-08-04T15:16:30.823Z,3.55
2022-08-04T15:19:01.946Z,3.40
2022-08-04T15:21:40.362Z,3.30
2022-08-04T15:24:12.320Z,3.58
2022-08-04T15:26:45.503Z,3.17
2022-08-04T15:29:17.514Z,3.00
2022-08-04T15:32:06.962Z,3.85
2022-08-04T15:34:49.354Z,3.75
2022-08-04T15:37:29.976Z,3.65
2022-08-04T15:40:04.771Z,3.75
2022-08-04T15:42:40.155Z,13.70
2022-08-04T15:46:26.506Z,3.75
2022-08-04T15:48:38.436Z,3.50
2022-08-04T15:51:52.970Z,3.30
2022-08-04T15:54:32.520Z,2.90
2022-08-04T15:57:05.917Z,3.60
2022-08-04T16:00:22.958Z,2.85
2022-08-04T16:02:55.614Z,3.22
2022-08-04T16:05:42.290Z,3.72
2022-08-04T16:08:18.490Z,3.45
2022-08-04T16:10:52.443Z,3.22
2022-08-04T16:13:24.740Z,3.40
2022-08-04T16:16:04.081Z,3.35
2022-08-04T16:19:06.658Z,3.58
2022-08-04T16:22:06.450Z,3.20
2022-08-04T16:24:52.289Z,3.15
2022-08-04T16:27:42.157Z,3.88
2022-08-04T16:30:15.251Z,3.63
2022-08-04T16:32:48.796Z,3.35
2022-08-04T16:35:24.541Z,3.70
2022-08-04T16:37:56.309Z,3.50
2022-08-04T16:40:38.049Z,3.60
2022-08-04T16:43:17.408Z,3.70
2022-08-04T16:45:55.858Z,3.95
2022-08-04T16:48:27.941Z,3.80
2022-08-04T16:51:06.807Z,3.75
2022-08-04T16:54:03.994Z,4.10
2022-08-04T16:56:48.256Z,3.20
2022-08-04T16:59:18.295Z,4.20
2022-08-04T17:01:48.659Z,4.68
2022-08-04T17:04:27.902Z,3.72
2022-08-04T17:07:01.311Z,3.95
2022-08-04T17:09:32.605Z,3.80
2022-08-04T17:12:05.553Z,3.75
2022-08-04T17:14:34.042Z,4.25
2022-08-04T17:17:08.895Z,4.38
2022-08-04T17:19:37.521Z,3.85
2022-08-04T17:22:10.386Z,3.92
2022-08-04T17:25:01.054Z,3.63
2022-08-04T17:30:33.616Z,4.10
2022-08-04T17:33:02.725Z,3.95
2022-08-04T17:35:38.496Z,4.22
2022-08-04T17:38:07.222Z,3.80
2022-08-04T17:40:36.220Z,3.95
2022-08-04T17:44:03.180Z,3.75
2022-08-04T17:46:33.033Z,3.92
2022-08-04T17:49:04.542Z,3.90
2022-08-04T17:52:02.510Z,4.63
2022-08-04T17:54:37.112Z,3.50
2022-08-04T17:57:16.653Z,3.67
2022-08-04T17:59:59.545Z,4.40
2022-08-04T18:02:33.421Z,3.88
2022-08-04T18:05:05.917Z,3.47
2022-08-04T18:08:37.721Z,3.88
2022-08-04T18:10:51.505Z,4.05
2022-08-04T18:13:23.493Z,3.85
2022-08-04T18:16:04.137Z,3.50
2022-08-04T18:18:33.063Z,3.70
2022-08-04T18:21:02.881Z,3.42
2022-08-04T18:23:33.465Z,3.78
2022-08-04T18:26:03.717Z,3.90
2022-08-04T18:28:33.181Z,4.05
2022-08-04T18:31:04.429Z,3.55
2022-08-04T18:33:41.285Z,3.70
2022-08-04T18:36:34.826Z,3.80
2022-08-04T18:39:12.534Z,4.28
2022-08-04T18:42:01.248Z,4.20
2022-08-04T18:44:31.617Z,4.47
2022-08-04T18:47:22.287Z,3.72
2022-08-04T18:50:58.601Z,3.53
2022-08-04T18:52:45.192Z,3.90
2022-08-04T18:55:55.563Z,4.28
2022-08-04T18:58:32.036Z,4.25
2022-08-04T19:01:17.192Z,3.75
2022-08-04T19:04:02.320Z,3.35
2022-08-04T19:06:44.295Z,3.50
2022-08-04T19:09:16.595Z,2.97
2022-08-04T19:11:54.612Z,4.15
2022-08-04T19:14:23.910Z,3.60
2022-08-04T19:16:55.969Z,4.63
2022-08-04T19:19:40.278Z,3.55
2022-08-04T19:22:35.563Z,3.45
2022-08-04T19:25:03.717Z,3.75
2022-08-04T19:27:42.680Z,5.95
2022-08-04T19:30:11.741Z,4.10
2022-08-04T19:32:40.283Z,3.22
2022-08-04T19:35:11.390Z,3.40
2022-08-04T19:37:57.387Z,3.72
2022-08-04T19:40:33.507Z,3.97
2022-08-04T19:43:14.235Z,3.30
2022-08-04T19:45:45.231Z,3.78
2022-08-04T19:48:19.446Z,4.20
2022-08-04T19:50:50.084Z,4.60
2022-08-04T19:53:20.231Z,5.05
2022-08-04T19:56:06.266Z,4.90
2022-08-04T19:58:34.990Z,5.28
2022-08-04T20:01:03.399Z,5.05
2022-08-04T20:04:10.321Z,4.80
2022-08-04T20:06:24.556Z,4.20
2022-08-04T20:08:53.159Z,3.83
2022-08-04T20:11:26.234Z,4.07
2022-08-04T20:13:55.315Z,8.32
2022-08-04T20:16:29.341Z,6.57
2022-08-04T20:19:03.134Z,5.55
2022-08-04T20:21:55.755Z,4.68
2022-08-04T20:24:38.273Z,3.70
2022-08-04T20:27:51.438Z,5.85
2022-08-04T20:30:18.993Z,4.25
2022-08-04T20:32:52.754Z,4.47
2022-08-04T20:35:26.691Z,4.45
2022-08-04T20:38:00.837Z,3.83
2022-08-04T20:40:29.929Z,4.05
2022-08-04T20:42:58.575Z,3.97
2022-08-04T20:45:57.247Z,4.70
2022-08-04T20:48:20.110Z,4.40
2022-08-04T20:50:54.278Z,4.10
2022-08-04T20:53:46.595Z,4.32
2022-08-04T20:56:19.379Z,4.07
2022-08-04T20:58:59.258Z,4.25
2022-08-04T21:01:30.057Z,4.43
2022-08-04T21:04:28.497Z,4.47
2022-08-04T21:06:57.355Z,4.30
2022-08-04T21:09:37.959Z,4.20
2022-08-04T21:12:26.563Z,3.83
2022-08-04T21:14:56.955Z,4.00
2022-08-04T21:17:57.867Z,4.18
2022-08-04T21:20:15.437Z,4.38
2022-08-04T21:22:55.811Z,3.88
2022-08-04T21:25:29.945Z,3.92
2022-08-04T21:28:04.398Z,4.45
2022-08-04T21:30:39.797Z,4.40
2022-08-04T21:33:22.168Z,3.67
2022-08-04T21:35:54.719Z,4.35
2022-08-04T21:38:25.309Z,4.00
2022-08-04T21:41:01.623Z,4.25
2022-08-04T21:43:42.772Z,3.90
2022-08-04T21:46:11.791Z,3.85
2022-08-04T21:48:42.549Z,4.13
2022-08-04T21:51:56.919Z,4.10
2022-08-04T21:54:05.546Z,4.40
2022-08-04T21:56:36.346Z,3.97
2022-08-04T21:59:14.192Z,3.90
2022-08-04T22:01:50.541Z,4.03
2022-08-04T22:04:21.067Z,3.42
2022-08-04T22:06:52.317Z,4.40
2022-08-04T22:09:21.876Z,4.13
2022-08-04T22:11:52.467Z,4.07
2022-08-04T22:14:29.585Z,3.67
2022-08-04T22:17:04.092Z,4.40
2022-08-04T22:19:54.608Z,4.22
2022-08-04T22:22:25.524Z,4.53
2022-08-04T22:24:58.996Z,4.22
2022-08-04T22:27:47.208Z,4.75
2022-08-04T22:30:18.026Z,4.00
2022-08-04T22:32:47.405Z,5.00
2022-08-04T22:35:36.368Z,4.80
2022-08-04T22:38:06.934Z,4.38
2022-08-04T22:40:50.094Z,4.32
2022-08-04T22:43:32.419Z,4.50
2022-08-04T22:46:03.529Z,4.72
2022-08-04T22:48:32.627Z,4.30
2022-08-04T22:51:03.219Z,4.10
2022-08-04T22:53:32.310Z,4.70
2022-08-04T22:56:10.055Z,4.55
2022-08-04T22:58:45.207Z,5.15
2022-08-04T23:01:20.695Z,4.45
2022-08-04T23:03:55.582Z,3.55
2022-08-04T23:06:28.635Z,4.63
2022-08-04T23:08:57.556Z,4.40
2022-08-04T23:11:29.926Z,3.72
2022-08-04T23:14:07.010Z,4.30
2022-08-04T23:16:40.684Z,4.22
2022-08-04T23:19:15.363Z,4.20
2022-08-04T23:21:47.998Z,4.03
2022-08-04T23:24:30.998Z,4.70
2022-08-04T23:27:40.310Z,4.10
2022-08-04T23:30:19.773Z,4.47
2022-08-04T23:32:50.253Z,4.30
2022-08-04T23:35:22.188Z,4.22
2022-08-04T23:37:56.624Z,4.50
2022-08-04T23:40:32.365Z,4.50
2022-08-04T23:43:17.228Z,4.18
2022-08-04T23:46:06.468Z,4.63
2022-08-04T23:48:39.162Z,4.38
2022-08-04T23:51:15.119Z,4.28
2022-08-04T23:54:03.747Z,4.38
2022-08-04T23:56:38.477Z,4.22
2022-08-04T23:59:18.012Z,4.40
